Time;durP1;ratioP1;P1;durP2;ratioP2;P2;SDS_P1;SDS_P2;PMS_P1;PMS_P2;Temp;Humidity;BMP_temperature;BMP_pressure;BME280_temperature;BME280_humidity;BME280_pressure;Samples;Min_cycle;Max_cycle;Signal;HPM_P1;HPM_P2
2021/03/04 00:00:43;;;;;;;57.40;36.27;;;;;;;;;;5044011;28;20210;-52
2021/03/04 00:03:09;;;;;;;60.27;35.93;;;;;;;;;;5045018;28;20178;-53
2021/03/04 00:05:35;;;;;;;63.57;36.50;;;;;;;;;;5024433;28;20709;-50
2021/03/04 00:08:01;;;;;;;56.77;34.87;;;;;;;;;;5030174;28;20198;-49
2021/03/04 00:10:26;;;;;;;57.07;33.70;;;;;;;;;;5043651;28;20270;-50
2021/03/04 00:12:52;;;;;;;53.57;33.53;;;;;;;;;;5035219;28;20181;-50
2021/03/04 00:15:24;;;;;;;48.90;33.10;;;;;;;;;;5043595;28;20797;-53
2021/03/04 00:17:50;;;;;;;46.80;30.27;;;;;;;;;;5040159;28;20228;-49
2021/03/04 00:20:19;;;;;;;50.10;31.53;;;;;;;;;;5041196;28;20626;-50
2021/03/04 00:22:44;;;;;;;59.00;36.13;;;;;;;;;;5045386;28;20201;-52
2021/03/04 00:25:11;;;;;;;57.37;33.80;;;;;;;;;;5046034;28;20182;-49
2021/03/04 00:27:38;;;;;;;56.47;34.37;;;;;;;;;;5041943;28;20277;-52
2021/03/04 00:30:08;;;;;;;55.53;33.47;;;;;;;;;;5026433;28;20704;-48
2021/03/04 00:32:34;;;;;;;60.63;36.23;;;;;;;;;;5044706;28;20237;-50
2021/03/04 00:34:59;;;;;;;52.73;34.00;;;;;;;;;;5046622;28;20689;-52
2021/03/04 00:37:25;;;;;;;70.00;42.47;;;;;;;;;;5044210;28;20562;-51
2021/03/04 00:39:50;;;;;;;61.07;37.77;;;;;;;;;;5032820;28;20339;-49
2021/03/04 00:42:15;;;;;;;60.63;35.07;;;;;;;;;;5046275;28;20198;-50
2021/03/04 00:44:41;;;;;;;57.43;34.57;;;;;;;;;;5051461;28;20233;-52
2021/03/04 00:47:06;;;;;;;68.40;38.70;;;;;;;;;;5043796;28;20260;-49
2021/03/04 00:49:31;;;;;;;69.07;42.53;;;;;;;;;;5047559;28;20232;-50
2021/03/04 00:51:57;;;;;;;83.57;46.13;;;;;;;;;;5030383;28;20726;-49
2021/03/04 00:54:22;;;;;;;74.00;44.10;;;;;;;;;;5051293;28;20260;-49
2021/03/04 00:56:47;;;;;;;77.63;45.53;;;;;;;;;;5044155;28;20197;-51
2021/03/04 00:59:15;;;;;;;78.07;44.53;;;;;;;;;;5030493;28;20177;-50
2021/03/04 01:01:41;;;;;;;70.23;42.70;;;;;;;;;;5042004;28;20623;-50
2021/03/04 01:04:06;;;;;;;76.83;42.13;;;;;;;;;;5051835;28;20268;-49
2021/03/04 01:06:31;;;;;;;68.37;42.93;;;;;;;;;;5047960;28;20258;-49
2021/03/04 01:08:56;;;;;;;67.73;41.47;;;;;;;;;;5048097;28;20217;-51
2021/03/04 01:11:22;;;;;;;67.37;39.70;;;;;;;;;;5042799;28;20207;-50
2021/03/04 01:13:47;;;;;;;70.27;42.63;;;;;;;;;;5048181;28;20622;-49
2021/03/04 01:16:12;;;;;;;68.80;41.07;;;;;;;;;;5046751;28;20190;-51
2021/03/04 01:18:38;;;;;;;68.67;41.07;;;;;;;;;;5046561;28;20707;-51
2021/03/04 01:21:04;;;;;;;65.23;40.37;;;;;;;;;;5037864;28;20221;-51
2021/03/04 01:23:29;;;;;;;61.93;37.73;;;;;;;;;;5048768;28;20197;-50
2021/03/04 01:25:55;;;;;;;65.00;40.10;;;;;;;;;;5044349;28;20565;-50
2021/03/04 01:28:20;;;;;;;69.53;40.67;;;;;;;;;;5047223;28;20629;-50
2021/03/04 01:30:46;;;;;;;66.37;39.40;;;;;;;;;;5048670;28;20214;-49
2021/03/04 01:33:12;;;;;;;64.73;40.57;;;;;;;;;;5030406;28;20658;-49
2021/03/04 01:35:37;;;;;;;65.17;40.80;;;;;;;;;;5041508;28;20191;-49
2021/03/04 01:38:02;;;;;;;72.43;40.53;;;;;;;;;;5043441;28;20284;-51
2021/03/04 01:40:30;;;;;;;64.47;41.50;;;;;;;;;;5045972;28;20206;-50
2021/03/04 01:42:55;;;;;;;68.17;38.27;;;;;;;;;;5032426;28;20193;-50
2021/03/04 01:45:20;;;;;;;67.00;41.37;;;;;;;;;;5025783;28;20453;-49
2021/03/04 01:47:52;;;;;;;66.77;40.13;;;;;;;;;;5044596;28;20221;-52
2021/03/04 01:50:18;;;;;;;72.73;41.27;;;;;;;;;;5045473;28;20697;-51
2021/03/04 01:52:44;;;;;;;69.33;41.27;;;;;;;;;;5032755;28;20189;-50
2021/03/04 01:55:10;;;;;;;69.03;41.73;;;;;;;;;;5039549;28;20194;-55
2021/03/04 01:57:36;;;;;;;66.30;38.83;;;;;;;;;;5046889;28;20281;-49
2021/03/04 02:00:05;;;;;;;61.67;39.70;;;;;;;;;;5033778;28;20276;-49
2021/03/04 02:02:30;;;;;;;67.20;41.03;;;;;;;;;;5042224;28;20195;-53
2021/03/04 02:04:55;;;;;;;69.37;40.00;;;;;;;;;;5039782;28;20190;-48
2021/03/04 02:07:56;;;;;;;66.40;41.40;;;;;;;;;;5039752;28;20225;-52
2021/03/04 02:10:31;;;;;;;68.80;39.83;;;;;;;;;;5041548;28;20210;-50
2021/03/04 02:13:02;;;;;;;66.90;38.87;;;;;;;;;;5046844;28;20189;-49
2021/03/04 02:15:32;;;;;;;75.03;42.30;;;;;;;;;;5045692;28;20483;-52
2021/03/04 02:18:01;;;;;;;68.87;39.77;;;;;;;;;;5048381;28;20190;-50
2021/03/04 02:20:34;;;;;;;70.57;42.77;;;;;;;;;;5047129;28;20236;-50
2021/03/04 02:23:21;;;;;;;69.40;42.27;;;;;;;;;;5014887;28;20189;-51
2021/03/04 02:26:03;;;;;;;80.87;45.03;;;;;;;;;;5041081;28;20202;-48
2021/03/04 02:28:30;;;;;;;83.70;50.00;;;;;;;;;;5050327;28;20190;-49
2021/03/04 02:31:02;;;;;;;85.00;47.87;;;;;;;;;;5045669;28;20367;-48
2021/03/04 02:33:29;;;;;;;81.47;46.90;;;;;;;;;;5030268;28;20247;-50
2021/03/04 02:35:54;;;;;;;86.97;48.20;;;;;;;;;;5041532;28;20200;-49
2021/03/04 02:38:20;;;;;;;96.47;50.93;;;;;;;;;;5024895;28;20187;-50
2021/03/04 02:40:49;;;;;;;90.67;50.53;;;;;;;;;;5032642;28;20677;-51
2021/03/04 02:43:17;;;;;;;101.03;51.87;;;;;;;;;;5058770;28;20599;-50
2021/03/04 02:45:44;;;;;;;104.67;51.80;;;;;;;;;;5044746;28;20201;-51
2021/03/04 02:48:18;;;;;;;99.07;49.93;;;;;;;;;;5028011;28;20213;-50
2021/03/04 02:50:45;;;;;;;96.83;50.20;;;;;;;;;;5048667;28;20217;-50
2021/03/04 02:53:11;;;;;;;94.63;51.27;;;;;;;;;;5026724;28;20200;-50
2021/03/04 02:55:38;;;;;;;99.40;50.70;;;;;;;;;;5045103;28;20206;-51
2021/03/04 02:58:06;;;;;;;101.00;51.33;;;;;;;;;;5044705;28;20665;-49
2021/03/04 03:00:32;;;;;;;94.13;50.70;;;;;;;;;;5047221;28;20210;-49
2021/03/04 03:03:00;;;;;;;94.70;51.17;;;;;;;;;;5047293;28;20681;-50
2021/03/04 03:05:31;;;;;;;95.67;50.70;;;;;;;;;;5045013;28;20193;-51
2021/03/04 03:07:58;;;;;;;94.27;49.93;;;;;;;;;;5046762;28;20206;-52
2021/03/04 03:10:24;;;;;;;91.40;49.80;;;;;;;;;;5058770;28;20201;-51
2021/03/04 03:12:50;;;;;;;93.03;48.93;;;;;;;;;;5024891;28;20648;-51
2021/03/04 03:15:18;;;;;;;98.37;52.03;;;;;;;;;;5043683;28;20273;-50
2021/03/04 03:17:45;;;;;;;86.30;48.20;;;;;;;;;;5036238;28;20202;-50
2021/03/04 03:20:17;;;;;;;87.07;48.20;;;;;;;;;;5048318;28;20216;-50
2021/03/04 03:22:42;;;;;;;82.37;48.57;;;;;;;;;;5044355;28;20252;-48
2021/03/04 03:25:09;;;;;;;84.53;47.93;;;;;;;;;;5044061;28;20194;-50
2021/03/04 03:27:36;;;;;;;85.97;48.27;;;;;;;;;;5042942;28;20217;-50
2021/03/04 03:30:06;;;;;;;89.07;49.17;;;;;;;;;;5045146;28;20201;-51
2021/03/04 03:32:32;;;;;;;86.97;46.70;;;;;;;;;;5043578;28;20239;-51
2021/03/04 03:35:00;;;;;;;87.03;47.73;;;;;;;;;;5042375;28;20198;-49
2021/03/04 03:37:26;;;;;;;80.63;44.70;;;;;;;;;;5025494;28;20561;-50
2021/03/04 03:39:53;;;;;;;73.63;44.73;;;;;;;;;;5047361;28;20248;-49
2021/03/04 03:42:20;;;;;;;82.07;45.80;;;;;;;;;;5045083;28;20646;-51
2021/03/04 03:44:46;;;;;;;82.63;46.33;;;;;;;;;;5023026;28;20194;-55
2021/03/04 03:47:13;;;;;;;82.47;44.37;;;;;;;;;;5025546;28;20254;-50
2021/03/04 03:49:39;;;;;;;89.47;46.33;;;;;;;;;;5045486;28;20221;-51
2021/03/04 03:52:06;;;;;;;84.43;48.30;;;;;;;;;;5046486;28;20281;-51
2021/03/04 03:54:32;;;;;;;79.30;46.00;;;;;;;;;;5040486;28;20249;-51
2021/03/04 03:56:58;;;;;;;73.30;45.13;;;;;;;;;;5042158;28;20678;-48
2021/03/04 03:59:24;;;;;;;81.90;45.53;;;;;;;;;;5044770;28;20221;-50
2021/03/04 04:01:50;;;;;;;77.17;43.13;;;;;;;;;;5028497;28;20287;-49
2021/03/04 04:04:16;;;;;;;73.27;42.93;;;;;;;;;;5044650;28;20699;-50
2021/03/04 04:06:42;;;;;;;71.73;42.03;;;;;;;;;;5024388;28;20209;-51
2021/03/04 04:09:08;;;;;;;73.00;41.23;;;;;;;;;;5037391;28;20240;-49
2021/03/04 04:11:35;;;;;;;73.37;42.17;;;;;;;;;;5027845;28;20186;-50
2021/03/04 04:14:00;;;;;;;76.13;44.33;;;;;;;;;;5023490;28;20201;-50
2021/03/04 04:16:26;;;;;;;76.57;40.13;;;;;;;;;;5043821;28;20194;-48
2021/03/04 04:18:52;;;;;;;70.87;42.53;;;;;;;;;;5039570;28;20191;-49
2021/03/04 04:21:17;;;;;;;77.63;42.90;;;;;;;;;;5023537;28;20273;-51
2021/03/04 04:23:43;;;;;;;84.37;48.63;;;;;;;;;;5042006;28;20662;-50
2021/03/04 04:26:09;;;;;;;81.37;41.43;;;;;;;;;;5043843;28;20547;-49
2021/03/04 04:28:35;;;;;;;78.57;42.33;;;;;;;;;;5044912;28;20234;-51
2021/03/04 04:31:00;;;;;;;75.00;43.27;;;;;;;;;;5043951;28;20252;-49
2021/03/04 04:33:25;;;;;;;74.30;42.10;;;;;;;;;;5042516;28;20225;-50
2021/03/04 04:35:51;;;;;;;84.33;46.80;;;;;;;;;;5043304;28;20193;-50
2021/03/04 04:38:17;;;;;;;80.47;42.20;;;;;;;;;;5042954;28;20564;-50
2021/03/04 04:40:42;;;;;;;69.37;39.47;;;;;;;;;;5038215;28;20678;-52
2021/03/04 04:43:08;;;;;;;75.53;42.37;;;;;;;;;;5040824;28;20669;-49
2021/03/04 04:45:34;;;;;;;80.50;43.00;;;;;;;;;;5035358;28;20204;-49
2021/03/04 04:47:59;;;;;;;78.20;42.83;;;;;;;;;;5045007;28;20206;-50
2021/03/04 04:50:24;;;;;;;74.30;41.30;;;;;;;;;;5043945;28;20307;-52
2021/03/04 04:52:49;;;;;;;72.43;43.20;;;;;;;;;;5036465;28;20200;-49
2021/03/04 04:55:15;;;;;;;83.27;43.40;;;;;;;;;;5036160;28;20186;-52
2021/03/04 04:57:40;;;;;;;79.13;42.93;;;;;;;;;;5015826;28;20190;-50
2021/03/04 05:00:08;;;;;;;79.47;42.83;;;;;;;;;;5040462;28;20296;-50
2021/03/04 05:02:34;;;;;;;77.70;42.50;;;;;;;;;;5033153;28;20189;-50
2021/03/04 05:05:00;;;;;;;78.67;41.90;;;;;;;;;;5047210;28;20186;-52
2021/03/04 05:07:25;;;;;;;80.50;42.73;;;;;;;;;;5045357;28;20296;-51
2021/03/04 05:09:51;;;;;;;77.70;42.53;;;;;;;;;;5043142;28;20246;-52
2021/03/04 05:12:16;;;;;;;78.57;41.83;;;;;;;;;;5022573;28;20207;-50
2021/03/04 05:14:41;;;;;;;79.67;43.70;;;;;;;;;;5042985;28;20194;-48
2021/03/04 05:17:09;;;;;;;81.83;40.27;;;;;;;;;;5039590;28;20205;-49
2021/03/04 05:19:34;;;;;;;82.23;42.53;;;;;;;;;;5047667;28;20260;-50
2021/03/04 05:22:00;;;;;;;69.27;39.40;;;;;;;;;;5047671;28;20193;-51
2021/03/04 05:24:25;;;;;;;75.60;40.73;;;;;;;;;;5031503;28;20652;-51
2021/03/04 05:26:50;;;;;;;76.10;40.00;;;;;;;;;;5055165;28;20250;-49
2021/03/04 05:29:17;;;;;;;79.43;41.50;;;;;;;;;;5055318;28;20219;-52
2021/03/04 05:31:42;;;;;;;81.60;43.00;;;;;;;;;;5050134;28;20282;-51
2021/03/04 05:34:07;;;;;;;80.70;42.67;;;;;;;;;;5043158;28;20309;-48
2021/03/04 05:36:33;;;;;;;80.37;42.57;;;;;;;;;;5048128;28;20558;-50
2021/03/04 05:38:59;;;;;;;75.47;41.30;;;;;;;;;;5048612;28;20179;-49
2021/03/04 05:41:25;;;;;;;84.10;42.53;;;;;;;;;;5027999;28;20316;-51
2021/03/04 05:43:50;;;;;;;82.50;43.80;;;;;;;;;;5055908;28;20557;-50
2021/03/04 05:46:21;;;;;;;76.80;42.47;;;;;;;;;;5027898;28;20202;-52
2021/03/04 05:48:49;;;;;;;79.03;43.90;;;;;;;;;;5048780;28;20194;-50
2021/03/04 05:51:18;;;;;;;78.33;43.20;;;;;;;;;;5023832;28;20210;-48
2021/03/04 05:53:47;;;;;;;86.53;43.97;;;;;;;;;;5049803;28;20665;-51
2021/03/04 05:56:15;;;;;;;79.10;42.93;;;;;;;;;;5054022;28;20194;-52
2021/03/04 05:58:42;;;;;;;82.77;42.10;;;;;;;;;;5049575;28;20177;-54
2021/03/04 06:01:08;;;;;;;90.27;45.53;;;;;;;;;;5026996;28;20478;-49
2021/03/04 06:03:33;;;;;;;83.33;42.73;;;;;;;;;;5044484;28;20654;-49
2021/03/04 06:05:59;;;;;;;89.70;44.93;;;;;;;;;;5043861;28;20715;-50
2021/03/04 06:08:24;;;;;;;80.17;40.57;;;;;;;;;;5042986;28;20226;-52
2021/03/04 06:10:50;;;;;;;95.17;49.53;;;;;;;;;;5041864;28;20294;-51
2021/03/04 06:13:16;;;;;;;85.47;42.40;;;;;;;;;;5040358;28;20308;-51
2021/03/04 06:15:41;;;;;;;85.83;42.30;;;;;;;;;;5043777;28;20285;-51
2021/03/04 06:18:06;;;;;;;89.70;43.90;;;;;;;;;;5049689;28;20612;-49
2021/03/04 06:20:41;;;;;;;88.80;43.83;;;;;;;;;;5045518;28;20209;-49
2021/03/04 06:23:07;;;;;;;85.73;39.83;;;;;;;;;;5045146;28;20204;-50
2021/03/04 06:25:33;;;;;;;83.70;41.13;;;;;;;;;;5044047;28;20182;-48
2021/03/04 06:27:58;;;;;;;95.40;45.47;;;;;;;;;;5040602;28;20279;-51
2021/03/04 06:30:24;;;;;;;92.53;42.97;;;;;;;;;;5033770;28;20297;-51
2021/03/04 06:33:13;;;;;;;85.97;40.63;;;;;;;;;;5046057;28;20194;-51
2021/03/04 06:35:40;;;;;;;84.97;41.60;;;;;;;;;;5041234;28;20209;-50
2021/03/04 06:38:16;;;;;;;83.13;40.90;;;;;;;;;;5047831;28;20185;-50
2021/03/04 06:40:42;;;;;;;95.27;42.00;;;;;;;;;;5048415;28;20209;-51
2021/03/04 06:43:22;;;;;;;89.10;37.53;;;;;;;;;;5028623;28;20267;-52
2021/03/04 06:45:47;;;;;;;86.30;39.40;;;;;;;;;;5026195;28;20194;-50
2021/03/04 06:48:15;;;;;;;95.03;40.73;;;;;;;;;;5035919;28;20761;-51
2021/03/04 06:50:48;;;;;;;101.80;42.97;;;;;;;;;;5027436;28;20640;-49
2021/03/04 06:53:18;;;;;;;90.40;40.20;;;;;;;;;;5046395;28;20294;-48
2021/03/04 06:55:50;;;;;;;94.77;41.63;;;;;;;;;;5043425;28;20189;-50
2021/03/04 06:58:29;;;;;;;90.13;40.87;;;;;;;;;;5038144;28;20182;-50
2021/03/04 07:01:16;;;;;;;84.00;38.60;;;;;;;;;;5042314;28;20210;-50
2021/03/04 07:03:42;;;;;;;80.77;38.60;;;;;;;;;;5040865;28;20281;-51
2021/03/04 07:06:11;;;;;;;84.57;38.70;;;;;;;;;;5047330;28;20327;-50
2021/03/04 07:08:42;;;;;;;86.80;40.63;;;;;;;;;;5045883;28;20243;-49
2021/03/04 07:11:09;;;;;;;87.97;40.47;;;;;;;;;;5043476;28;20216;-50
2021/03/04 07:13:36;;;;;;;89.90;40.27;;;;;;;;;;5040266;28;20198;-50
2021/03/04 07:16:06;;;;;;;84.57;40.50;;;;;;;;;;5041506;28;20281;-51
2021/03/04 07:18:41;;;;;;;94.27;41.33;;;;;;;;;;5038263;28;20205;-54
2021/03/04 07:21:09;;;;;;;91.10;40.10;;;;;;;;;;5037434;28;20700;-52
2021/03/04 07:23:41;;;;;;;86.20;39.60;;;;;;;;;;5043458;28;20252;-50
2021/03/04 07:26:08;;;;;;;84.60;37.37;;;;;;;;;;5046262;28;20181;-51
2021/03/04 07:28:39;;;;;;;79.50;38.73;;;;;;;;;;5045938;28;20681;-50
2021/03/04 07:31:05;;;;;;;82.77;39.37;;;;;;;;;;5044128;28;20624;-49
2021/03/04 07:33:32;;;;;;;82.67;36.37;;;;;;;;;;5023457;28;20209;-51
2021/03/04 07:36:01;;;;;;;70.60;35.23;;;;;;;;;;5045149;28;20186;-52
2021/03/04 07:38:28;;;;;;;77.27;37.63;;;;;;;;;;5041741;28;20193;-49
2021/03/04 07:41:03;;;;;;;77.83;35.23;;;;;;;;;;5043566;28;20259;-52
2021/03/04 07:43:28;;;;;;;81.07;36.67;;;;;;;;;;5035605;28;20251;-49
2021/03/04 07:45:53;;;;;;;78.40;36.70;;;;;;;;;;5042903;28;20186;-51
2021/03/04 07:48:19;;;;;;;72.77;35.13;;;;;;;;;;5044674;28;20488;-50
2021/03/04 07:50:58;;;;;;;71.10;34.23;;;;;;;;;;5041756;28;20209;-50
2021/03/04 07:53:24;;;;;;;69.67;34.03;;;;;;;;;;5036931;28;20203;-50
2021/03/04 07:55:50;;;;;;;70.33;36.57;;;;;;;;;;5024510;28;20187;-48
2021/03/04 07:58:16;;;;;;;70.93;33.53;;;;;;;;;;5039516;28;20703;-50
2021/03/04 08:00:41;;;;;;;74.70;34.20;;;;;;;;;;5040306;28;20297;-50
2021/03/04 08:03:07;;;;;;;75.50;33.40;;;;;;;;;;5027707;28;20251;-50
2021/03/04 08:05:38;;;;;;;69.00;31.97;;;;;;;;;;5025315;28;20198;-53
2021/03/04 08:08:21;;;;;;;73.03;33.00;;;;;;;;;;5028176;28;20230;-50
2021/03/04 08:10:54;;;;;;;73.70;34.37;;;;;;;;;;5044393;28;20206;-52
2021/03/04 08:13:38;;;;;;;69.63;32.10;;;;;;;;;;5040919;28;20195;-50
2021/03/04 08:16:12;;;;;;;79.80;34.43;;;;;;;;;;5043792;28;20194;-50
2021/03/04 08:18:38;;;;;;;70.20;33.03;;;;;;;;;;5022535;28;20183;-51
2021/03/04 08:21:05;;;;;;;70.13;32.77;;;;;;;;;;5048674;28;20201;-50
2021/03/04 08:23:30;;;;;;;67.53;32.20;;;;;;;;;;5038902;28;20617;-48
2021/03/04 08:25:58;;;;;;;73.13;33.17;;;;;;;;;;5045407;28;20237;-51
2021/03/04 08:28:25;;;;;;;75.43;34.13;;;;;;;;;;5044614;28;20262;-48
2021/03/04 08:30:51;;;;;;;71.53;33.23;;;;;;;;;;5043457;28;20209;-52
2021/03/04 08:33:17;;;;;;;71.00;32.73;;;;;;;;;;5044538;28;20604;-49
2021/03/04 08:35:45;;;;;;;69.53;31.97;;;;;;;;;;5020957;28;20218;-49
2021/03/04 08:38:14;;;;;;;77.20;34.60;;;;;;;;;;5043029;28;20178;-51
2021/03/04 08:40:55;;;;;;;73.47;33.90;;;;;;;;;;5038981;28;20548;-51
2021/03/04 08:43:25;;;;;;;71.93;32.67;;;;;;;;;;5024907;28;20196;-52
2021/03/04 08:45:51;;;;;;;71.50;34.00;;;;;;;;;;5009172;28;20533;-49
2021/03/04 08:48:17;;;;;;;81.97;34.90;;;;;;;;;;5022863;28;20207;-50
2021/03/04 08:50:47;;;;;;;76.37;33.60;;;;;;;;;;5037740;28;20320;-49
2021/03/04 08:53:15;;;;;;;68.67;33.40;;;;;;;;;;5021424;28;20191;-49
2021/03/04 08:55:45;;;;;;;67.67;32.27;;;;;;;;;;5021405;28;20178;-50
2021/03/04 08:58:11;;;;;;;70.17;32.03;;;;;;;;;;5042707;28;20186;-53
2021/03/04 09:00:37;;;;;;;77.10;32.63;;;;;;;;;;5048228;28;20218;-50
2021/03/04 09:03:07;;;;;;;68.37;31.77;;;;;;;;;;5022559;28;20201;-52
2021/03/04 09:05:32;;;;;;;66.17;31.73;;;;;;;;;;5042743;28;20567;-53
2021/03/04 09:07:57;;;;;;;75.57;30.73;;;;;;;;;;5038428;28;20517;-51
2021/03/04 09:10:22;;;;;;;76.73;32.97;;;;;;;;;;5047196;28;20607;-52
2021/03/04 09:12:48;;;;;;;71.93;33.00;;;;;;;;;;5040373;28;20222;-53
2021/03/04 09:15:17;;;;;;;64.67;32.50;;;;;;;;;;5024955;28;20198;-49
2021/03/04 09:17:44;;;;;;;62.90;29.53;;;;;;;;;;5040604;28;20190;-51
2021/03/04 09:20:11;;;;;;;60.07;29.67;;;;;;;;;;5047090;28;20625;-54
2021/03/04 09:22:40;;;;;;;58.80;28.87;;;;;;;;;;5042397;28;20957;-51
2021/03/04 09:25:08;;;;;;;57.70;29.20;;;;;;;;;;5026937;28;20194;-49
2021/03/04 09:27:37;;;;;;;63.13;29.67;;;;;;;;;;5019212;28;20229;-53
2021/03/04 09:30:02;;;;;;;55.30;28.73;;;;;;;;;;5027759;28;20232;-51
2021/03/04 09:32:32;;;;;;;58.90;28.60;;;;;;;;;;5040851;28;20269;-50
2021/03/04 09:34:57;;;;;;;64.03;32.13;;;;;;;;;;5041242;28;20895;-52
2021/03/04 09:37:28;;;;;;;68.00;30.10;;;;;;;;;;5019028;28;20273;-51
2021/03/04 09:39:55;;;;;;;64.27;29.97;;;;;;;;;;5039809;28;20218;-51
2021/03/04 09:42:32;;;;;;;61.53;29.50;;;;;;;;;;5043589;28;20639;-49
2021/03/04 09:45:01;;;;;;;59.83;30.40;;;;;;;;;;5042422;28;20345;-53
2021/03/04 09:47:31;;;;;;;58.93;28.03;;;;;;;;;;5018356;28;20185;-52
2021/03/04 09:49:58;;;;;;;60.90;29.20;;;;;;;;;;5043299;28;20206;-49
2021/03/04 09:52:24;;;;;;;61.30;30.20;;;;;;;;;;5029754;28;20209;-50
2021/03/04 09:54:51;;;;;;;59.40;27.43;;;;;;;;;;5040520;28;20213;-54
2021/03/04 09:57:20;;;;;;;66.40;29.10;;;;;;;;;;5036784;28;20198;-51
2021/03/04 09:59:53;;;;;;;61.70;28.47;;;;;;;;;;5024612;28;20285;-49
2021/03/04 10:02:20;;;;;;;67.07;29.03;;;;;;;;;;5045831;28;20572;-50
2021/03/04 10:05:03;;;;;;;64.60;28.70;;;;;;;;;;5041815;28;20570;-54
2021/03/04 10:07:30;;;;;;;67.50;29.93;;;;;;;;;;5021469;28;20670;-50
2021/03/04 10:09:56;;;;;;;62.70;27.90;;;;;;;;;;5033872;28;20408;-50
2021/03/04 10:12:22;;;;;;;64.03;27.27;;;;;;;;;;5042476;28;20253;-50
2021/03/04 10:14:50;;;;;;;65.87;27.70;;;;;;;;;;5043731;28;20264;-50
2021/03/04 10:17:16;;;;;;;68.30;29.80;;;;;;;;;;5038496;28;20222;-49
2021/03/04 10:19:42;;;;;;;56.23;26.27;;;;;;;;;;5035508;28;20704;-50
2021/03/04 10:22:08;;;;;;;65.23;27.27;;;;;;;;;;5042914;28;20197;-50
2021/03/04 10:24:34;;;;;;;62.63;27.07;;;;;;;;;;5036891;28;20686;-52
2021/03/04 10:26:59;;;;;;;58.97;26.57;;;;;;;;;;5043819;28;20689;-50
2021/03/04 10:29:28;;;;;;;56.10;24.97;;;;;;;;;;5041485;28;20214;-53
2021/03/04 10:31:57;;;;;;;51.57;24.70;;;;;;;;;;5051416;28;20273;-50
2021/03/04 10:34:23;;;;;;;50.73;24.07;;;;;;;;;;5045376;28;20213;-48
2021/03/04 10:36:49;;;;;;;51.70;25.20;;;;;;;;;;5040858;28;20932;-50
2021/03/04 10:39:15;;;;;;;50.70;23.60;;;;;;;;;;5043908;28;20186;-49
2021/03/04 10:41:42;;;;;;;41.53;21.93;;;;;;;;;;5034348;28;20216;-50
2021/03/04 10:44:09;;;;;;;47.93;22.40;;;;;;;;;;5026526;28;20186;-51
2021/03/04 10:46:35;;;;;;;48.63;23.13;;;;;;;;;;5038975;28;20197;-50
2021/03/04 10:49:00;;;;;;;43.47;22.80;;;;;;;;;;5041607;28;20569;-50
2021/03/04 10:51:26;;;;;;;41.73;21.10;;;;;;;;;;5034388;28;20214;-53
2021/03/04 10:53:51;;;;;;;38.33;19.20;;;;;;;;;;5045160;28;20186;-50
2021/03/04 10:56:16;;;;;;;38.77;19.13;;;;;;;;;;5037090;28;20186;-49
2021/03/04 10:58:41;;;;;;;36.43;18.33;;;;;;;;;;5041806;28;20611;-52
2021/03/04 11:01:07;;;;;;;31.50;16.90;;;;;;;;;;5023340;28;20209;-50
2021/03/04 11:03:32;;;;;;;41.23;18.80;;;;;;;;;;5045630;28;20189;-53
2021/03/04 11:05:57;;;;;;;38.47;19.73;;;;;;;;;;5039402;28;20644;-49
2021/03/04 11:08:22;;;;;;;41.40;20.50;;;;;;;;;;5033226;28;20219;-50
2021/03/04 11:10:48;;;;;;;38.83;21.10;;;;;;;;;;5025238;28;20209;-53
2021/03/04 11:13:16;;;;;;;43.33;21.20;;;;;;;;;;5018994;28;20725;-51
2021/03/04 11:15:41;;;;;;;47.80;21.97;;;;;;;;;;5038023;28;20190;-50
2021/03/04 11:18:07;;;;;;;39.67;19.97;;;;;;;;;;5040929;28;20190;-50
2021/03/04 11:20:32;;;;;;;41.73;19.40;;;;;;;;;;5039888;28;20206;-50
2021/03/04 11:22:58;;;;;;;50.23;24.30;;;;;;;;;;5040843;28;20186;-54
2021/03/04 11:25:24;;;;;;;45.47;21.07;;;;;;;;;;5039511;28;20190;-51
2021/03/04 11:27:49;;;;;;;46.63;21.53;;;;;;;;;;5016645;28;20324;-50
2021/03/04 11:30:15;;;;;;;41.80;18.63;;;;;;;;;;5039743;28;20211;-50
2021/03/04 11:32:40;;;;;;;34.87;18.20;;;;;;;;;;5043565;28;20189;-50
2021/03/04 11:35:06;;;;;;;36.83;18.07;;;;;;;;;;5035317;28;20279;-53
2021/03/04 11:37:31;;;;;;;37.10;18.40;;;;;;;;;;5036053;28;20205;-50
2021/03/04 11:39:57;;;;;;;37.80;19.47;;;;;;;;;;5039038;28;20217;-51
2021/03/04 11:42:22;;;;;;;39.17;16.97;;;;;;;;;;5044612;28;20208;-53
2021/03/04 11:44:48;;;;;;;37.20;17.33;;;;;;;;;;5019240;28;20289;-47
2021/03/04 11:47:13;;;;;;;31.17;15.93;;;;;;;;;;5039623;28;20198;-50
2021/03/04 11:49:39;;;;;;;34.97;17.67;;;;;;;;;;5041879;28;20591;-51
2021/03/04 11:52:04;;;;;;;34.43;16.57;;;;;;;;;;5037907;28;20203;-50
2021/03/04 11:54:29;;;;;;;34.90;17.90;;;;;;;;;;5033634;28;20678;-52
2021/03/04 11:56:55;;;;;;;39.77;19.03;;;;;;;;;;5037497;28;20222;-50
2021/03/04 11:59:20;;;;;;;35.83;17.33;;;;;;;;;;5032517;28;20193;-49
2021/03/04 12:01:45;;;;;;;36.20;17.67;;;;;;;;;;5038075;28;20190;-51
2021/03/04 12:04:11;;;;;;;37.30;17.77;;;;;;;;;;5030698;28;20202;-49
2021/03/04 12:06:36;;;;;;;36.90;18.20;;;;;;;;;;5035241;28;20929;-51
2021/03/04 12:09:04;;;;;;;34.37;17.53;;;;;;;;;;5032158;28;20224;-50
2021/03/04 12:11:30;;;;;;;36.20;17.30;;;;;;;;;;5042527;28;20605;-51
2021/03/04 12:13:55;;;;;;;33.03;17.10;;;;;;;;;;5037181;28;20204;-49
2021/03/04 12:16:20;;;;;;;35.20;16.50;;;;;;;;;;5039550;28;20197;-49
2021/03/04 12:18:45;;;;;;;32.97;17.23;;;;;;;;;;5019465;28;20662;-48
2021/03/04 12:21:11;;;;;;;31.67;15.73;;;;;;;;;;5037451;28;20214;-47
2021/03/04 12:23:39;;;;;;;30.07;15.87;;;;;;;;;;5030426;28;20201;-53
2021/03/04 12:26:04;;;;;;;26.37;15.07;;;;;;;;;;5035092;28;20201;-52
2021/03/04 12:28:29;;;;;;;27.10;15.07;;;;;;;;;;5046771;28;20210;-48
2021/03/04 12:30:55;;;;;;;25.53;14.20;;;;;;;;;;5050495;28;20271;-49
2021/03/04 12:33:20;;;;;;;28.90;14.47;;;;;;;;;;5048969;28;20208;-51
2021/03/04 12:35:45;;;;;;;30.13;15.63;;;;;;;;;;5040628;28;20186;-49
2021/03/04 12:38:11;;;;;;;32.37;16.87;;;;;;;;;;5041617;28;20200;-51
2021/03/04 12:40:37;;;;;;;31.60;15.80;;;;;;;;;;5048145;28;20228;-49
2021/03/04 12:43:07;;;;;;;33.97;15.90;;;;;;;;;;5042695;28;20186;-49
2021/03/04 12:45:34;;;;;;;32.73;15.63;;;;;;;;;;5016021;28;20194;-49
2021/03/04 12:48:01;;;;;;;32.53;16.57;;;;;;;;;;5011799;28;20622;-50
2021/03/04 12:50:27;;;;;;;39.60;17.77;;;;;;;;;;5009581;28;20198;-49
2021/03/04 12:52:52;;;;;;;37.60;18.63;;;;;;;;;;5032136;28;20212;-48
2021/03/04 12:55:20;;;;;;;42.03;18.50;;;;;;;;;;5041166;28;20356;-50
2021/03/04 12:57:48;;;;;;;41.00;20.37;;;;;;;;;;5042310;28;20236;-51
2021/03/04 13:00:15;;;;;;;43.37;21.60;;;;;;;;;;5035809;28;20213;-48
2021/03/04 13:02:40;;;;;;;39.70;18.37;;;;;;;;;;5033192;28;20203;-50
2021/03/04 13:05:06;;;;;;;36.77;17.93;;;;;;;;;;5043352;28;20206;-49
2021/03/04 13:07:32;;;;;;;36.73;18.90;;;;;;;;;;5038836;28;20260;-52
2021/03/04 13:09:57;;;;;;;41.13;19.83;;;;;;;;;;5025099;28;20906;-49
2021/03/04 13:12:22;;;;;;;39.20;17.70;;;;;;;;;;5038229;28;20202;-51
2021/03/04 13:14:48;;;;;;;33.57;16.90;;;;;;;;;;5037584;28;20721;-54
2021/03/04 13:17:13;;;;;;;32.93;16.87;;;;;;;;;;5014659;28;20723;-51
2021/03/04 13:19:39;;;;;;;38.27;17.87;;;;;;;;;;5030911;28;20214;-50
2021/03/04 13:22:04;;;;;;;36.07;17.37;;;;;;;;;;5039088;28;20202;-53
2021/03/04 13:24:29;;;;;;;31.53;16.77;;;;;;;;;;5042282;28;20201;-48
2021/03/04 13:26:55;;;;;;;29.10;15.00;;;;;;;;;;5022601;28;20281;-52
2021/03/04 13:29:20;;;;;;;27.80;14.43;;;;;;;;;;5029402;28;20882;-50
2021/03/04 13:31:46;;;;;;;27.87;13.17;;;;;;;;;;5043241;28;20286;-50
2021/03/04 13:34:11;;;;;;;27.67;14.77;;;;;;;;;;5037988;28;20206;-50
2021/03/04 13:36:37;;;;;;;30.20;14.47;;;;;;;;;;5031420;28;20654;-49
2021/03/04 13:39:03;;;;;;;31.27;16.17;;;;;;;;;;5039533;28;20191;-49
2021/03/04 13:41:28;;;;;;;30.03;14.60;;;;;;;;;;5020827;28;20218;-48
2021/03/04 13:43:53;;;;;;;24.30;12.87;;;;;;;;;;5037510;28;20277;-50
2021/03/04 13:46:18;;;;;;;26.97;12.97;;;;;;;;;;5033853;28;20194;-52
2021/03/04 13:48:44;;;;;;;28.40;12.27;;;;;;;;;;5029974;28;20213;-50
2021/03/04 13:51:09;;;;;;;28.70;12.70;;;;;;;;;;5043440;28;20206;-51
2021/03/04 13:53:35;;;;;;;25.10;12.07;;;;;;;;;;5039046;28;20235;-48
2021/03/04 13:56:00;;;;;;;24.97;12.57;;;;;;;;;;5022104;28;20194;-51
2021/03/04 13:58:27;;;;;;;23.60;12.17;;;;;;;;;;5045426;28;20217;-48
2021/03/04 14:00:52;;;;;;;26.80;12.80;;;;;;;;;;5046430;28;20210;-48
2021/03/04 14:03:17;;;;;;;22.50;11.20;;;;;;;;;;5041556;28;20665;-49
2021/03/04 14:05:43;;;;;;;20.47;10.40;;;;;;;;;;5040084;28;20210;-48
2021/03/04 14:08:08;;;;;;;25.33;12.13;;;;;;;;;;5038464;28;20241;-47
2021/03/04 14:10:33;;;;;;;20.17;10.90;;;;;;;;;;5041560;28;20720;-48
2021/03/04 14:12:59;;;;;;;19.70;10.73;;;;;;;;;;5039103;28;20576;-49
2021/03/04 14:15:24;;;;;;;17.97;9.73;;;;;;;;;;5025777;28;20206;-48